Time;durP1;ratioP1;P1;durP2;ratioP2;P2;SDS_P1;SDS_P2;PMS_P1;PMS_P2;Temp;Humidity;BMP_temperature;BMP_pressure;BME280_temperature;BME280_humidity;BME280_pressure;Samples;Min_cycle;Max_cycle;Signal;HPM_P1;HPM_P2
2021/04/15 00:01:55;;;;;;;4.93;1.20;;;4.40;97.60;;;;;;4344603;33;20202;-61
2021/04/15 00:04:21;;;;;;;3.70;1.23;;;4.30;98.30;;;;;;4344260;33;20200;-61
2021/04/15 00:06:50;;;;;;;4.93;1.00;;;4.20;99.20;;;;;;4343765;33;20705;-61
2021/04/15 00:09:19;;;;;;;2.47;0.83;;;4.20;99.10;;;;;;4342612;33;20219;-61
2021/04/15 00:11:46;;;;;;;1.30;0.67;;;4.10;99.00;;;;;;4343316;33;20267;-60
2021/04/15 00:14:16;;;;;;;3.93;0.80;;;4.10;99.70;;;;;;4345039;33;20212;-59
2021/04/15 00:16:43;;;;;;;2.67;0.70;;;4.00;99.90;;;;;;4344792;33;20189;-60
2021/04/15 00:19:12;;;;;;;5.63;1.03;;;3.90;99.90;;;;;;4342931;33;20220;-60
2021/04/15 00:21:39;;;;;;;2.60;1.20;;;3.70;99.90;;;;;;4343149;33;20209;-61
2021/04/15 00:24:05;;;;;;;2.17;1.10;;;3.60;99.90;;;;;;4341933;33;20161;-61
2021/04/15 00:26:32;;;;;;;5.10;1.40;;;3.70;99.90;;;;;;4342053;33;20192;-60
2021/04/15 00:28:59;;;;;;;1.20;0.70;;;3.70;99.90;;;;;;4344916;33;20212;-62
2021/04/15 00:31:30;;;;;;;3.30;0.90;;;3.70;99.90;;;;;;4345915;33;20217;-62
2021/04/15 00:33:57;;;;;;;2.90;1.00;;;3.70;99.90;;;;;;4347444;33;20212;-62
2021/04/15 00:36:25;;;;;;;3.67;0.70;;;3.70;99.90;;;;;;4344880;33;20217;-60
2021/04/15 00:38:52;;;;;;;1.30;0.60;;;3.60;99.90;;;;;;4349625;33;20515;-61
2021/04/15 00:41:20;;;;;;;1.30;0.67;;;3.60;99.90;;;;;;4347200;33;20161;-61
2021/04/15 00:43:47;;;;;;;2.33;0.63;;;3.60;99.90;;;;;;4344074;33;20611;-60
2021/04/15 00:46:42;;;;;;;1.87;0.77;;;3.60;99.90;;;;;;4345268;33;20204;-60
2021/04/15 00:49:11;;;;;;;0.83;0.60;;;3.70;99.90;;;;;;4346623;33;20244;-62
2021/04/15 00:51:42;;;;;;;2.87;0.70;;;3.70;99.90;;;;;;4348143;33;20494;-63
2021/04/15 00:54:14;;;;;;;1.90;0.80;;;3.80;99.90;;;;;;4347364;33;20157;-59
2021/04/15 00:56:41;;;;;;;1.37;0.60;;;3.80;99.90;;;;;;4345433;32;20229;-60
2021/04/15 00:59:08;;;;;;;2.70;0.90;;;3.90;99.90;;;;;;4345371;33;20172;-60
2021/04/15 01:01:35;;;;;;;2.83;0.70;;;4.00;99.90;;;;;;4346871;33;20200;-61
2021/04/15 01:04:04;;;;;;;1.90;0.80;;;4.00;99.90;;;;;;4347396;33;20244;-60
2021/04/15 01:06:32;;;;;;;4.67;0.83;;;4.10;99.90;;;;;;4342560;32;20501;-59
2021/04/15 01:09:00;;;;;;;2.83;0.70;;;4.10;99.90;;;;;;4345206;32;20232;-62
2021/04/15 01:11:38;;;;;;;1.63;1.17;;;4.10;99.90;;;;;;4347402;33;20180;-62
2021/04/15 01:14:14;;;;;;;5.07;1.10;;;4.10;99.90;;;;;;4347137;33;20597;-60
2021/04/15 01:16:55;;;;;;;2.20;1.13;;;4.10;99.90;;;;;;4344729;33;20183;-59
2021/04/15 01:20:00;;;;;;;2.40;0.90;;;4.00;99.90;;;;;;4346614;33;20244;-62
2021/04/15 01:22:49;;;;;;;4.23;1.00;;;3.90;99.90;;;;;;4346759;33;20199;-61
2021/04/15 01:25:31;;;;;;;3.13;0.97;;;3.90;99.90;;;;;;4347171;33;20208;-62
2021/04/15 01:28:05;;;;;;;4.17;1.63;;;3.80;99.90;;;;;;4346802;32;20209;-60
2021/04/15 01:30:37;;;;;;;2.30;1.20;;;3.80;99.90;;;;;;4339922;33;20256;-60
2021/04/15 01:33:11;;;;;;;2.00;1.10;;;3.70;99.90;;;;;;4340617;33;20204;-62
2021/04/15 01:35:46;;;;;;;2.43;1.00;;;3.70;99.90;;;;;;4347521;33;20235;-61
2021/04/15 01:38:18;;;;;;;3.67;1.10;;;3.80;99.90;;;;;;4345486;32;20184;-60
2021/04/15 01:40:50;;;;;;;2.90;0.87;;;3.80;99.90;;;;;;4345679;33;20236;-61
2021/04/15 01:43:21;;;;;;;2.30;1.00;;;3.90;99.90;;;;;;4347514;33;20233;-60
2021/04/15 01:45:50;;;;;;;3.43;1.00;;;3.90;99.90;;;;;;4346535;33;20239;-60
2021/04/15 01:48:19;;;;;;;2.97;1.00;;;4.00;99.90;;;;;;4342291;32;20644;-62
2021/04/15 01:50:53;;;;;;;5.40;1.70;;;4.00;99.90;;;;;;4346062;32;20188;-61
2021/04/15 01:53:26;;;;;;;2.73;1.00;;;4.00;99.90;;;;;;4346419;33;20158;-61
2021/04/15 01:55:57;;;;;;;1.23;0.90;;;4.10;99.90;;;;;;4346303;33;20232;-59
2021/04/15 01:58:30;;;;;;;4.67;1.10;;;4.10;99.90;;;;;;4344986;33;20614;-59
2021/04/15 02:01:03;;;;;;;3.80;1.70;;;4.10;99.90;;;;;;4345629;33;20222;-61
2021/04/15 02:03:31;;;;;;;3.63;1.57;;;4.00;99.90;;;;;;4347614;33;20181;-60
2021/04/15 02:06:01;;;;;;;4.70;1.27;;;4.00;99.90;;;;;;4346411;33;20261;-59
2021/04/15 02:08:30;;;;;;;4.47;1.37;;;3.90;99.90;;;;;;4342621;33;20205;-62
2021/04/15 02:11:02;;;;;;;3.37;1.50;;;3.80;99.90;;;;;;4339251;33;20161;-60
2021/04/15 02:13:32;;;;;;;2.93;1.50;;;3.70;99.90;;;;;;4345781;33;20189;-59
2021/04/15 02:16:03;;;;;;;4.90;1.30;;;3.80;99.90;;;;;;4346465;33;20617;-61
2021/04/15 02:18:35;;;;;;;3.10;1.70;;;3.80;99.90;;;;;;4340455;32;20706;-60
2021/04/15 02:21:08;;;;;;;3.17;1.23;;;3.90;99.90;;;;;;4344955;33;20197;-61
2021/04/15 02:23:40;;;;;;;3.00;1.30;;;3.90;99.90;;;;;;4343254;33;20217;-61
2021/04/15 02:26:11;;;;;;;3.63;1.30;;;3.90;99.90;;;;;;4345183;33;20221;-61
2021/04/15 02:28:44;;;;;;;5.20;1.30;;;3.90;99.90;;;;;;4339352;32;20240;-62
2021/04/15 02:31:15;;;;;;;4.43;1.40;;;3.90;99.90;;;;;;4341366;33;20221;-60
2021/04/15 02:33:47;;;;;;;2.53;1.47;;;3.90;99.90;;;;;;4339386;33;20212;-63
2021/04/15 02:36:15;;;;;;;3.33;1.33;;;3.90;99.90;;;;;;4346389;33;21947;-60
2021/04/15 02:38:49;;;;;;;2.60;1.47;;;4.00;99.90;;;;;;4342664;33;20288;-60
2021/04/15 02:41:19;;;;;;;6.03;1.60;;;4.00;99.90;;;;;;4341622;33;20591;-61
2021/04/15 02:43:51;;;;;;;2.30;1.60;;;3.90;99.90;;;;;;4343409;33;20251;-60
2021/04/15 02:46:23;;;;;;;3.97;1.33;;;4.00;99.90;;;;;;4346118;33;20191;-60
2021/04/15 02:48:51;;;;;;;3.13;1.40;;;4.00;99.90;;;;;;4342629;33;20209;-62
2021/04/15 02:51:26;;;;;;;4.03;1.83;;;3.90;99.90;;;;;;4345710;33;20216;-62
2021/04/15 02:53:58;;;;;;;5.47;1.70;;;3.90;99.90;;;;;;4345719;33;20153;-60
2021/04/15 02:56:29;;;;;;;3.23;1.80;;;3.90;99.90;;;;;;4336134;33;20221;-62
2021/04/15 02:58:59;;;;;;;4.67;1.80;;;3.80;99.90;;;;;;4348924;32;20255;-60
2021/04/15 03:01:31;;;;;;;4.13;1.50;;;3.70;99.90;;;;;;4337258;33;20223;-61
2021/04/15 03:03:59;;;;;;;2.40;1.47;;;3.60;99.90;;;;;;4345416;33;20180;-61
2021/04/15 03:06:30;;;;;;;3.37;1.53;;;3.60;99.90;;;;;;4346413;33;20161;-62
2021/04/15 03:09:00;;;;;;;3.67;1.67;;;3.50;99.90;;;;;;4344580;33;20602;-61
2021/04/15 03:11:33;;;;;;;2.77;1.90;;;3.50;99.90;;;;;;4345571;33;20213;-60
2021/04/15 03:14:03;;;;;;;5.03;1.57;;;3.40;99.90;;;;;;4344992;33;20560;-60
2021/04/15 03:16:34;;;;;;;7.87;1.70;;;3.30;99.90;;;;;;4344585;33;20243;-59
2021/04/15 03:19:04;;;;;;;3.83;1.73;;;3.30;99.90;;;;;;4344190;33;20162;-61
2021/04/15 03:21:36;;;;;;;3.93;1.50;;;3.30;99.90;;;;;;4345103;33;20216;-60
2021/04/15 03:24:10;;;;;;;3.90;1.80;;;3.20;99.90;;;;;;4345690;33;20188;-59
2021/04/15 03:26:44;;;;;;;2.43;1.73;;;3.30;99.90;;;;;;4345510;33;20204;-60
2021/04/15 03:29:21;;;;;;;4.30;2.37;;;3.40;99.90;;;;;;4344109;33;20263;-60
2021/04/15 03:32:01;;;;;;;3.07;1.80;;;3.40;99.90;;;;;;4344601;33;20204;-60
2021/04/15 03:34:31;;;;;;;3.37;2.23;;;3.50;99.90;;;;;;4344800;33;20184;-60
2021/04/15 03:36:58;;;;;;;4.23;2.50;;;3.60;99.90;;;;;;4344040;33;20156;-59
2021/04/15 03:39:31;;;;;;;6.27;2.63;;;3.60;99.90;;;;;;4337756;33;20305;-59
2021/04/15 03:42:07;;;;;;;3.60;2.67;;;3.60;99.90;;;;;;4341354;33;20195;-62
2021/04/15 03:44:40;;;;;;;4.50;2.57;;;3.70;99.90;;;;;;4345831;33;20169;-62
2021/04/15 03:47:11;;;;;;;8.37;3.07;;;3.70;99.90;;;;;;4345200;33;20227;-59
2021/04/15 03:49:40;;;;;;;3.63;2.60;;;3.70;99.90;;;;;;4343470;33;20175;-62
2021/04/15 03:52:11;;;;;;;4.60;2.87;;;3.70;99.90;;;;;;4338092;33;20319;-59
2021/04/15 03:54:40;;;;;;;6.30;3.70;;;3.60;99.90;;;;;;4344701;33;20196;-60
2021/04/15 03:57:11;;;;;;;6.27;3.50;;;3.60;99.90;;;;;;4346459;33;20204;-60
2021/04/15 03:59:44;;;;;;;7.10;3.50;;;3.40;99.90;;;;;;4345237;33;20208;-60
2021/04/15 04:02:14;;;;;;;5.03;3.67;;;3.30;99.90;;;;;;4345251;33;20165;-61
2021/04/15 04:04:44;;;;;;;6.60;3.87;;;3.30;99.90;;;;;;4344864;33;20221;-59
2021/04/15 04:07:17;;;;;;;5.07;3.20;;;3.30;99.90;;;;;;4346277;33;20212;-59
2021/04/15 04:09:50;;;;;;;5.13;3.10;;;3.30;99.90;;;;;;4347379;33;20221;-60
2021/04/15 04:12:25;;;;;;;6.93;3.57;;;3.40;99.90;;;;;;4347012;33;20171;-60
2021/04/15 04:14:57;;;;;;;7.33;3.00;;;3.40;99.90;;;;;;4343096;33;20301;-59
2021/04/15 04:17:32;;;;;;;8.67;3.17;;;3.50;99.90;;;;;;4347430;33;20165;-62
2021/04/15 04:19:59;;;;;;;4.37;3.13;;;3.50;99.90;;;;;;4347251;33;20577;-61
2021/04/15 04:22:39;;;;;;;7.70;3.43;;;3.50;99.90;;;;;;4347647;33;20608;-60
2021/04/15 04:25:13;;;;;;;4.90;3.03;;;3.40;99.90;;;;;;4349132;33;20161;-60
2021/04/15 04:27:44;;;;;;;8.43;2.70;;;3.40;99.90;;;;;;4347285;33;20259;-61
2021/04/15 04:30:14;;;;;;;7.80;3.43;;;3.30;99.90;;;;;;4348038;33;20179;-62
2021/04/15 04:32:43;;;;;;;8.97;3.90;;;3.20;99.90;;;;;;4347257;33;20561;-60
2021/04/15 04:35:13;;;;;;;5.47;3.33;;;3.20;99.90;;;;;;4348280;33;20295;-62
2021/04/15 04:37:45;;;;;;;5.87;3.50;;;3.10;99.90;;;;;;4347428;33;20220;-61
2021/04/15 04:40:17;;;;;;;8.67;4.23;;;3.10;99.90;;;;;;4347019;33;20199;-62
2021/04/15 04:42:46;;;;;;;6.50;4.43;;;3.10;99.90;;;;;;4341720;33;20165;-60
2021/04/15 04:45:16;;;;;;;6.70;4.90;;;3.20;99.90;;;;;;4348508;33;20229;-61
2021/04/15 04:47:49;;;;;;;8.03;4.50;;;3.30;99.90;;;;;;4345583;33;20176;-59
2021/04/15 04:50:28;;;;;;;7.33;5.03;;;3.50;99.90;;;;;;4343147;33;20191;-60
2021/04/15 04:53:00;;;;;;;6.27;4.93;;;3.50;99.90;;;;;;4343078;32;20251;-60
2021/04/15 04:55:32;;;;;;;10.23;5.83;;;3.60;99.90;;;;;;4348708;33;20497;-61
2021/04/15 04:57:59;;;;;;;7.47;5.00;;;3.70;99.90;;;;;;4344101;33;20644;-61
2021/04/15 05:00:27;;;;;;;12.53;6.10;;;3.70;99.90;;;;;;4333314;33;20174;-60
2021/04/15 05:02:55;;;;;;;9.33;6.17;;;3.80;99.90;;;;;;4342643;33;20240;-60
2021/04/15 05:05:30;;;;;;;10.63;6.40;;;3.80;99.90;;;;;;4339693;33;20233;-59
2021/04/15 05:08:00;;;;;;;13.63;7.63;;;3.70;99.90;;;;;;4341428;33;20207;-62
2021/04/15 05:10:29;;;;;;;13.43;7.23;;;3.70;99.90;;;;;;4347064;33;20236;-61
2021/04/15 05:13:10;;;;;;;16.27;8.53;;;3.70;99.90;;;;;;4341863;33;20217;-61
2021/04/15 05:15:38;;;;;;;11.83;7.90;;;3.60;99.90;;;;;;4347157;33;20184;-61
2021/04/15 05:18:07;;;;;;;10.33;7.63;;;3.80;99.90;;;;;;4347127;33;20243;-60
2021/04/15 05:20:34;;;;;;;16.07;8.03;;;3.80;99.90;;;;;;4343031;33;20251;-60
2021/04/15 05:23:07;;;;;;;13.53;7.93;;;3.80;99.90;;;;;;4352189;33;20220;-61
2021/04/15 05:25:39;;;;;;;13.37;7.97;;;3.80;99.90;;;;;;4349041;33;20184;-61
2021/04/15 05:28:10;;;;;;;13.00;8.63;;;3.90;99.90;;;;;;4345224;33;20206;-60
2021/04/15 05:30:40;;;;;;;14.53;8.43;;;3.90;99.90;;;;;;4344445;33;20201;-61
2021/04/15 05:33:12;;;;;;;10.73;7.80;;;3.90;99.90;;;;;;4338912;33;20594;-61
2021/04/15 05:35:43;;;;;;;13.90;7.87;;;4.10;99.90;;;;;;4346337;33;20351;-60
2021/04/15 05:38:12;;;;;;;13.13;8.90;;;4.30;99.90;;;;;;4343748;33;20162;-60
2021/04/15 05:40:41;;;;;;;10.27;7.83;;;4.70;99.90;;;;;;4335719;33;20258;-62
2021/04/15 05:43:21;;;;;;;12.50;7.70;;;5.10;99.90;;;;;;4339616;33;20226;-60
2021/04/15 05:45:57;;;;;;;10.07;6.70;;;5.80;99.90;;;;;;4346085;33;20197;-60
2021/04/15 05:48:27;;;;;;;5.83;3.80;;;6.80;99.90;;;;;;4336910;33;20204;-60
2021/04/15 05:50:59;;;;;;;8.90;4.33;;;6.60;98.80;;;;;;4344996;33;20647;-60
2021/04/15 05:53:33;;;;;;;8.77;4.77;;;6.40;98.90;;;;;;4346031;32;20508;-61
2021/04/15 05:56:04;;;;;;;8.63;5.53;;;6.30;99.50;;;;;;4341868;33;20161;-61
2021/04/15 05:58:35;;;;;;;8.13;4.80;;;6.40;99.50;;;;;;4345977;33;20215;-61
2021/04/15 06:01:08;;;;;;;9.20;5.93;;;6.50;99.20;;;;;;4344781;33;20157;-61
2021/04/15 06:03:45;;;;;;;13.13;6.80;;;6.50;98.70;;;;;;4342859;33;20223;-61
2021/04/15 06:06:15;;;;;;;10.17;6.63;;;6.50;98.50;;;;;;4344809;32;20230;-60
2021/04/15 06:08:45;;;;;;;10.37;5.77;;;6.30;98.80;;;;;;4343803;33;20316;-60
2021/04/15 06:11:25;;;;;;;9.97;6.30;;;6.10;99.10;;;;;;4344270;33;20573;-60
2021/04/15 06:13:57;;;;;;;10.73;7.20;;;5.60;99.70;;;;;;4343700;33;20271;-60
2021/04/15 06:16:29;;;;;;;8.17;6.20;;;5.50;99.90;;;;;;4342986;33;20158;-60
2021/04/15 06:19:05;;;;;;;7.93;5.10;;;5.50;99.90;;;;;;4342298;33;20180;-61
2021/04/15 06:21:36;;;;;;;12.70;6.47;;;5.50;99.90;;;;;;4342029;33;20217;-61
2021/04/15 06:24:06;;;;;;;12.70;5.80;;;5.40;99.90;;;;;;4343288;33;20177;-60
2021/04/15 06:26:35;;;;;;;10.07;5.27;;;5.20;99.90;;;;;;4343780;33;20621;-62
2021/04/15 06:29:05;;;;;;;11.77;4.97;;;5.40;99.90;;;;;;4342168;33;20704;-62
2021/04/15 06:31:37;;;;;;;8.50;5.17;;;5.50;99.90;;;;;;4340446;33;20165;-61
2021/04/15 06:34:06;;;;;;;8.83;5.47;;;5.60;99.90;;;;;;4340937;33;20269;-60
2021/04/15 06:36:39;;;;;;;7.67;4.70;;;5.60;99.90;;;;;;4341934;32;20272;-60
2021/04/15 06:39:15;;;;;;;11.67;5.23;;;5.60;99.90;;;;;;4343224;33;20617;-61
2021/04/15 06:42:14;;;;;;;7.47;4.60;;;5.70;99.90;;;;;;4346671;32;20249;-60
2021/04/15 06:45:06;;;;;;;8.77;4.93;;;5.70;99.90;;;;;;4344168;33;20165;-61
2021/04/15 06:48:06;;;;;;;5.97;4.47;;;5.70;99.90;;;;;;4341268;33;20262;-61
2021/04/15 06:50:42;;;;;;;9.10;4.20;;;5.70;99.90;;;;;;4342046;33;20218;-62
2021/04/15 06:53:29;;;;;;;9.77;4.37;;;5.80;99.90;;;;;;4343441;33;20501;-60
2021/04/15 06:56:13;;;;;;;10.87;3.60;;;5.90;99.90;;;;;;4342099;33;20183;-60
2021/04/15 06:59:09;;;;;;;9.10;3.60;;;6.00;99.90;;;;;;4341537;33;20203;-62
2021/04/15 07:01:51;;;;;;;6.83;4.03;;;6.20;99.50;;;;;;4341958;33;20180;-60
2021/04/15 07:04:19;;;;;;;7.80;3.43;;;6.30;99.10;;;;;;4340839;33;20600;-59
2021/04/15 07:06:52;;;;;;;6.03;3.97;;;6.50;99.10;;;;;;4343202;32;20582;-62
2021/04/15 07:09:58;;;;;;;7.63;4.13;;;6.80;98.50;;;;;;4343100;33;20746;-61
2021/04/15 07:12:58;;;;;;;6.33;3.87;;;7.10;97.50;;;;;;4342779;33;20161;-59
2021/04/15 07:15:56;;;;;;;7.23;3.17;;;6.90;96.90;;;;;;4341247;33;20191;-61
2021/04/15 07:18:47;;;;;;;11.63;3.90;;;6.70;97.30;;;;;;4339491;33;20235;-60
2021/04/15 07:21:54;;;;;;;7.57;4.03;;;6.60;97.70;;;;;;4342881;33;20230;-60
2021/04/15 07:24:35;;;;;;;10.00;3.50;;;7.00;97.30;;;;;;4342090;33;20200;-60
2021/04/15 07:27:17;;;;;;;8.73;3.83;;;7.20;95.90;;;;;;4342970;33;20170;-60
2021/04/15 07:30:03;;;;;;;6.03;3.40;;;7.00;96.50;;;;;;4342191;33;20292;-60
2021/04/15 07:33:01;;;;;;;10.37;3.87;;;7.40;96.60;;;;;;4341860;33;20178;-61
2021/04/15 07:35:44;;;;;;;8.40;2.87;;;7.80;95.00;;;;;;4344219;33;20655;-61
2021/04/15 07:38:38;;;;;;;5.03;2.70;;;8.20;94.10;;;;;;4343401;33;20529;-61
2021/04/15 07:41:48;;;;;;;8.63;2.60;;;8.90;91.60;;;;;;4342538;33;20195;-60
2021/04/15 07:44:30;;;;;;;5.57;2.67;;;9.00;91.30;;;;;;4343642;33;20653;-62
2021/04/15 07:47:33;;;;;;;6.63;2.60;;;10.30;90.40;;;;;;4339486;33;20254;-60
2021/04/15 07:50:33;;;;;;;4.67;2.30;;;14.00;81.30;;;;;;4279721;33;20225;-61
2021/04/15 07:53:28;;;;;;;2.90;1.87;;;18.40;60.50;;;;;;4283596;33;20195;-66
2021/04/15 07:56:40;;;;;;;3.87;1.70;;;15.20;64.20;;;;;;4285088;33;20514;-60
2021/04/15 07:59:37;;;;;;;3.43;2.03;;;12.10;75.30;;;;;;4278281;33;20341;-59
2021/04/15 08:02:30;;;;;;;4.13;2.37;;;10.20;80.20;;;;;;4228142;34;20683;-60
2021/04/15 08:05:29;;;;;;;3.90;2.40;;;9.00;86.30;;;;;;4227408;33;21790;-61
2021/04/15 08:08:34;;;;;;;4.27;2.37;;;8.80;89.30;;;;;;4224338;34;20246;-60
2021/04/15 08:11:32;;;;;;;4.80;2.73;;;9.70;86.50;;;;;;4227142;33;20171;-60
2021/04/15 08:14:52;;;;;;;4.43;2.70;;;9.80;83.60;;;;;;4221748;33;20260;-60
2021/04/15 08:18:08;;;;;;;4.93;2.53;;;9.30;85.90;;;;;;4221152;33;20220;-64
2021/04/15 08:21:03;;;;;;;3.60;2.27;;;8.80;85.90;;;;;;4220472;33;20214;-61
2021/04/15 08:23:57;;;;;;;5.07;2.30;;;8.60;88.80;;;;;;4221793;33;20188;-60
2021/04/15 08:27:11;;;;;;;4.87;2.10;;;10.90;85.50;;;;;;4233426;33;20248;-63
2021/04/15 08:29:58;;;;;;;3.30;1.77;;;20.10;63.40;;;;;;4278045;33;20518;-61
2021/04/15 08:32:44;;;;;;;10.00;1.40;;;27.80;40.70;;;;;;4277984;33;20646;-66
2021/04/15 08:35:27;;;;;;;2.07;1.50;;;31.00;32.40;;;;;;4278409;33;20183;-59
2021/04/15 08:38:04;;;;;;;4.00;2.00;;;31.60;30.90;;;;;;4277062;33;20206;-59
2021/04/15 08:40:54;;;;;;;3.87;1.97;;;27.00;31.60;;;;;;4340433;33;20330;-61
2021/04/15 08:43:40;;;;;;;2.07;1.57;;;24.10;37.30;;;;;;4340114;33;20242;-60
2021/04/15 08:46:19;;;;;;;2.03;1.80;;;28.10;34.00;;;;;;4340178;33;20161;-60
2021/04/15 08:49:15;;;;;;;2.10;1.90;;;29.90;31.80;;;;;;4338741;33;20578;-62
2021/04/15 08:52:13;;;;;;;3.03;1.87;;;33.30;30.30;;;;;;4340327;33;20998;-61
2021/04/15 08:55:02;;;;;;;3.87;2.00;;;33.80;28.60;;;;;;4341767;33;20607;-59
2021/04/15 08:57:47;;;;;;;3.80;2.33;;;26.00;31.40;;;;;;4340769;33;20160;-60
2021/04/15 09:00:30;;;;;;;3.80;2.77;;;22.20;37.60;;;;;;4339993;33;20624;-60
2021/04/15 09:03:24;;;;;;;2.27;2.03;;;23.30;39.90;;;;;;4343662;33;20216;-59
2021/04/15 09:06:18;;;;;;;4.50;2.00;;;27.10;33.50;;;;;;4268372;33;20186;-60
2021/04/15 09:09:05;;;;;;;3.60;1.80;;;26.00;34.00;;;;;;4269668;33;20182;-61
2021/04/15 09:11:39;;;;;;;2.03;1.40;;;22.70;37.80;;;;;;4257760;33;20197;-59
2021/04/15 09:14:18;;;;;;;4.70;1.57;;;19.10;43.50;;;;;;4255894;33;20223;-59
2021/04/15 09:16:53;;;;;;;2.73;1.60;;;16.60;50.50;;;;;;4255374;33;20230;-60
2021/04/15 09:19:38;;;;;;;5.43;1.73;;;13.90;59.50;;;;;;4256364;33;20184;-60
2021/04/15 09:22:22;;;;;;;4.13;1.50;;;12.10;65.70;;;;;;4256017;33;20315;-60
2021/04/15 09:24:57;;;;;;;3.83;1.70;;;11.00;71.20;;;;;;4259474;33;20198;-60
2021/04/15 09:27:47;;;;;;;3.70;1.63;;;10.70;74.30;;;;;;4256782;33;20598;-58
2021/04/15 09:30:27;;;;;;;3.60;1.77;;;11.20;73.70;;;;;;4256554;33;20564;-62
2021/04/15 09:33:01;;;;;;;4.40;1.67;;;11.60;69.80;;;;;;4255974;33;20174;-58
2021/04/15 09:35:45;;;;;;;5.73;1.90;;;11.60;66.80;;;;;;4259943;33;20226;-58
2021/04/15 09:38:52;;;;;;;4.53;2.27;;;11.00;70.10;;;;;;4255698;33;20187;-59
2021/04/15 09:42:04;;;;;;;3.90;2.07;;;10.90;70.30;;;;;;4258107;33;20247;-59
2021/04/15 09:44:54;;;;;;;3.30;1.60;;;11.10;70.70;;;;;;4262811;33;20242;-61
2021/04/15 09:47:34;;;;;;;4.10;1.70;;;11.30;70.50;;;;;;4266000;33;20605;-59
2021/04/15 09:50:19;;;;;;;2.87;1.40;;;12.20;67.80;;;;;;4264186;33;20225;-60
2021/04/15 09:53:07;;;;;;;4.70;1.40;;;12.10;66.00;;;;;;4267908;33;20189;-59
2021/04/15 09:55:58;;;;;;;1.87;1.23;;;11.60;66.60;;;;;;4271659;33;20230;-61
2021/04/15 09:58:35;;;;;;;2.00;1.50;;;11.20;69.20;;;;;;4270521;33;20226;-59
2021/04/15 10:01:07;;;;;;;2.27;1.57;;;10.80;69.80;;;;;;4270169;33;20703;-60
2021/04/15 10:03:53;;;;;;;2.97;1.23;;;10.90;70.30;;;;;;4270175;33;20174;-59
2021/04/15 10:06:24;;;;;;;3.10;1.60;;;11.30;68.70;;;;;;4268626;33;20163;-61
2021/04/15 10:09:22;;;;;;;3.57;1.80;;;11.60;68.80;;;;;;4265998;33;20190;-59
2021/04/15 10:12:29;;;;;;;4.37;1.93;;;11.70;67.90;;;;;;4280034;33;20179;-59
2021/04/15 10:15:33;;;;;;;5.33;2.10;;;12.20;66.70;;;;;;4275753;33;20225;-62
2021/04/15 10:18:06;;;;;;;3.23;2.10;;;12.80;67.70;;;;;;4286673;33;20482;-60
2021/04/15 10:20:58;;;;;;;2.13;1.70;;;12.90;64.40;;;;;;4310289;33;20618;-61
2021/04/15 10:23:50;;;;;;;2.80;1.60;;;12.70;64.50;;;;;;4311972;33;20213;-60
2021/04/15 10:26:29;;;;;;;1.63;1.47;;;12.60;64.80;;;;;;4311826;33;20598;-59
2021/04/15 10:29:31;;;;;;;4.67;1.50;;;12.10;64.20;;;;;;4312578;33;20194;-60
2021/04/15 10:32:17;;;;;;;4.13;1.80;;;11.80;66.00;;;;;;4311808;33;20643;-60
2021/04/15 10:35:07;;;;;;;2.60;1.60;;;11.90;65.00;;;;;;4310491;33;20188;-63
2021/04/15 10:38:00;;;;;;;2.90;2.00;;;11.60;67.10;;;;;;4312039;33;20174;-61
2021/04/15 10:40:50;;;;;;;1.37;1.27;;;11.80;65.70;;;;;;4312915;33;20170;-62
2021/04/15 10:43:50;;;;;;;3.07;1.50;;;11.50;65.30;;;;;;4313041;33;20632;-60
2021/04/15 10:46:29;;;;;;;2.47;1.30;;;10.80;69.30;;;;;;4313964;33;20258;-61
2021/04/15 10:49:01;;;;;;;2.20;1.73;;;10.80;68.60;;;;;;4313427;33;20653;-59
2021/04/15 10:51:38;;;;;;;4.07;1.67;;;10.60;68.90;;;;;;4312934;33;20159;-61
2021/04/15 10:54:24;;;;;;;2.47;1.30;;;10.10;70.60;;;;;;4310044;33;20170;-61
2021/04/15 10:56:54;;;;;;;2.03;1.67;;;9.70;70.20;;;;;;4308696;33;20247;-61
2021/04/15 10:59:37;;;;;;;3.17;1.90;;;9.60;72.70;;;;;;4311814;33;20608;-60
2021/04/15 11:02:29;;;;;;;2.37;1.43;;;9.90;73.30;;;;;;4312088;33;20283;-62
2021/04/15 11:05:18;;;;;;;2.53;1.47;;;10.20;72.20;;;;;;4312873;33;20176;-62
2021/04/15 11:07:48;;;;;;;1.73;1.30;;;10.70;69.50;;;;;;4312922;33;20236;-60
2021/04/15 11:10:26;;;;;;;3.57;1.70;;;11.40;68.80;;;;;;4319971;33;20605;-61
2021/04/15 11:13:18;;;;;;;1.83;1.17;;;12.20;65.10;;;;;;4340936;33;20158;-62
2021/04/15 11:15:46;;;;;;;2.37;1.00;;;12.60;63.60;;;;;;4340547;33;20526;-61
2021/04/15 11:18:21;;;;;;;3.60;1.37;;;12.70;59.90;;;;;;4341318;33;20221;-60
2021/04/15 11:20:48;;;;;;;3.20;1.20;;;12.30;61.80;;;;;;4341614;33;20885;-60
2021/04/15 11:23:32;;;;;;;3.63;1.43;;;12.10;60.00;;;;;;4342354;33;20167;-61
2021/04/15 11:26:17;;;;;;;4.07;1.33;;;11.80;61.60;;;;;;4342413;33;20625;-59
2021/04/15 11:28:44;;;;;;;1.53;1.10;;;11.70;62.80;;;;;;4341409;33;20216;-61
2021/04/15 11:31:40;;;;;;;1.20;1.00;;;11.60;62.70;;;;;;4341550;33;20185;-60
2021/04/15 11:34:10;;;;;;;1.83;1.03;;;11.60;63.60;;;;;;4339783;33;20304;-59
2021/04/15 11:36:40;;;;;;;3.70;1.40;;;11.50;60.00;;;;;;4341047;33;20162;-59
2021/04/15 11:39:13;;;;;;;2.27;1.20;;;11.10;60.90;;;;;;4342397;33;20216;-59
2021/04/15 11:41:51;;;;;;;1.43;1.33;;;10.80;62.30;;;;;;4338066;33;20219;-61
2021/04/15 11:44:32;;;;;;;2.73;1.20;;;10.70;64.60;;;;;;4342066;32;21688;-61
2021/04/15 11:47:02;;;;;;;1.70;1.23;;;11.00;65.30;;;;;;4341667;33;20223;-62
2021/04/15 11:49:31;;;;;;;3.50;1.40;;;11.50;63.50;;;;;;4339832;33;20223;-62
2021/04/15 11:52:14;;;;;;;1.50;1.20;;;12.00;61.20;;;;;;4339323;33;20197;-61
2021/04/15 11:54:43;;;;;;;2.23;1.20;;;11.90;56.10;;;;;;4340165;33;20280;-60
2021/04/15 11:57:26;;;;;;;1.30;1.00;;;12.00;58.50;;;;;;4340231;33;20181;-60
2021/04/15 12:00:21;;;;;;;3.43;1.80;;;12.20;56.30;;;;;;4338878;33;20240;-62
2021/04/15 12:03:03;;;;;;;4.67;1.40;;;12.30;56.20;;;;;;4306021;33;20244;-62
2021/04/15 12:05:31;;;;;;;2.73;1.30;;;12.20;56.10;;;;;;4310492;33;20165;-61
2021/04/15 12:08:02;;;;;;;4.00;1.13;;;12.40;57.80;;;;;;4310209;33;20714;-60
2021/04/15 12:10:32;;;;;;;3.00;1.40;;;12.40;59.30;;;;;;4307813;33;20196;-60
2021/04/15 12:13:02;;;;;;;3.83;1.27;;;12.50;58.30;;;;;;4308133;33;20246;-62
2021/04/15 12:15:37;;;;;;;1.80;1.27;;;12.40;56.10;;;;;;4314312;33;20697;-61
2021/04/15 12:18:12;;;;;;;2.27;1.03;;;12.20;55.80;;;;;;4309000;33;20173;-62
2021/04/15 12:20:44;;;;;;;1.43;1.20;;;12.20;56.70;;;;;;4310103;33;20197;-62
2021/04/15 12:23:18;;;;;;;2.40;1.40;;;12.50;53.90;;;;;;4304956;33;20170;-60
2021/04/15 12:25:52;;;;;;;5.53;2.23;;;12.70;54.50;;;;;;4310719;33;20213;-62
2021/04/15 12:28:26;;;;;;;2.83;1.90;;;12.20;60.60;;;;;;4309172;33;20179;-62
2021/04/15 12:31:00;;;;;;;2.60;1.90;;;11.50;62.20;;;;;;4312749;33;20216;-61
2021/04/15 12:33:34;;;;;;;4.73;2.17;;;11.00;65.40;;;;;;4313613;33;20237;-60
2021/04/15 12:36:07;;;;;;;3.77;2.07;;;10.60;68.70;;;;;;4312129;33;20213;-61
2021/04/15 12:38:37;;;;;;;3.53;2.53;;;10.20;68.10;;;;;;4329404;33;20703;-61
2021/04/15 12:41:12;;;;;;;4.20;2.03;;;10.10;68.30;;;;;;4343704;33;20205;-61
2021/04/15 12:43:42;;;;;;;2.73;2.40;;;10.00;68.90;;;;;;4343846;33;20488;-62
2021/04/15 12:46:12;;;;;;;4.03;2.47;;;9.90;70.20;;;;;;4345226;33;20178;-60
2021/04/15 12:48:43;;;;;;;2.87;1.97;;;10.10;69.20;;;;;;4344880;33;20194;-60
2021/04/15 12:51:12;;;;;;;6.70;2.50;;;10.30;68.50;;;;;;4344904;33;20184;-60
2021/04/15 12:53:43;;;;;;;3.10;2.00;;;10.40;68.50;;;;;;4340268;33;20158;-60
2021/04/15 12:56:14;;;;;;;3.27;2.03;;;10.40;67.60;;;;;;4342758;33;20232;-63
2021/04/15 12:58:41;;;;;;;1.80;1.70;;;10.60;67.00;;;;;;4344452;33;20597;-61
2021/04/15 13:01:08;;;;;;;4.47;2.47;;;10.80;65.40;;;;;;4343872;32;20249;-61
2021/04/15 13:03:36;;;;;;;5.50;2.20;;;11.00;64.40;;;;;;4342905;33;20194;-63
2021/04/15 13:06:07;;;;;;;4.70;1.90;;;11.30;64.10;;;;;;4345416;33;20238;-60
2021/04/15 13:08:52;;;;;;;2.30;1.80;;;11.60;63.00;;;;;;4348986;33;20257;-61
2021/04/15 13:11:36;;;;;;;5.40;2.03;;;11.90;60.50;;;;;;4343735;33;20179;-60
2021/04/15 13:14:05;;;;;;;4.03;1.90;;;12.30;59.40;;;;;;4342998;33;20218;-62
2021/04/15 13:16:50;;;;;;;2.20;1.80;;;12.60;58.70;;;;;;4344144;33;20179;-60
2021/04/15 13:19:52;;;;;;;4.07;2.10;;;12.80;55.50;;;;;;4346022;33;20166;-62
2021/04/15 13:22:35;;;;;;;1.53;1.40;;;12.80;53.10;;;;;;4333376;33;20172;-60
2021/04/15 13:25:12;;;;;;;1.87;1.70;;;12.70;54.70;;;;;;4336750;33;20179;-61
2021/04/15 13:28:01;;;;;;;2.57;1.57;;;12.70;55.10;;;;;;4335218;33;20206;-63
2021/04/15 13:30:35;;;;;;;2.20;1.80;;;12.60;52.00;;;;;;4340832;33;20242;-60
2021/04/15 13:33:09;;;;;;;4.27;1.67;;;12.30;52.10;;;;;;4346736;33;20167;-60
2021/04/15 13:35:42;;;;;;;2.33;1.70;;;11.90;52.00;;;;;;4340122;32;20162;-60
2021/04/15 13:38:44;;;;;;;4.47;1.83;;;11.60;52.50;;;;;;4343446;33;20177;-61
2021/04/15 13:41:15;;;;;;;3.87;1.50;;;11.30;53.70;;;;;;4343115;33;20216;-61
2021/04/15 13:43:55;;;;;;;4.20;1.50;;;11.00;55.20;;;;;;4334319;33;20157;-62
2021/04/15 13:46:38;;;;;;;1.93;1.50;;;10.80;56.10;;;;;;4344197;33;20165;-61
2021/04/15 13:49:38;;;;;;;2.27;1.73;;;10.70;57.60;;;;;;4339860;33;20157;-61